Terminal Aerodrome Forecast
Issued by NWS Charleston, WV

Current Version | Previous Version | Graphics & Text | Print | Product List | Glossary On
Versions: 1 2 3 4 5 6 7 8 9 10 11 12 13 14 15 16 17
586
FTUS41 KRLX 201503 AAA
TAFPKB
TAF AMD
KPKB 201503Z 2015/2112 00000KT P6SM SKC
     FM201600 33006KT P6SM SKC
     FM210000 00000KT P6SM SKC=

USA.gov is the U.S. government's official web portal to all federal, state and local government web resources and services.